Time;durP1;ratioP1;P1;durP2;ratioP2;P2;SDS_P1;SDS_P2;PMS_P1;PMS_P2;Temp;Humidity;BMP_temperature;BMP_pressure;BME280_temperature;BME280_humidity;BME280_pressure;Samples;Min_cycle;Max_cycle;Signal;HPM_P1;HPM_P2
2023/08/14 00:01:49;;;;;;;16.30;8.50;;;;;;;20.05;58.97;100627.96;107704;1262;72638;-68
2023/08/14 00:04:17;;;;;;;15.60;9.50;;;;;;;20.07;59.07;100629.07;107862;1256;60462;-68
2023/08/14 00:06:44;;;;;;;21.00;16.90;;;;;;;20.25;58.54;100630.11;107828;1256;59601;-68
2023/08/14 00:09:12;;;;;;;20.10;12.80;;;;;;;20.32;58.41;100631.45;107717;1256;73356;-68
2023/08/14 00:11:39;;;;;;;14.50;10.50;;;;;;;20.62;57.74;100632.02;107836;1259;69420;-68
2023/08/14 00:14:06;;;;;;;12.40;8.30;;;;;;;20.64;57.57;100631.02;107650;1258;71052;-68
2023/08/14 00:16:34;;;;;;;10.30;7.20;;;;;;;20.65;57.50;100631.06;107768;1259;61691;-68
2023/08/14 00:19:01;;;;;;;12.10;7.40;;;;;;;20.60;57.91;100634.63;107690;1259;60001;-69
2023/08/14 00:21:28;;;;;;;11.10;7.90;;;;;;;20.77;57.31;100634.34;107679;1260;71773;-68
2023/08/14 00:23:56;;;;;;;15.20;8.00;;;;;;;21.01;56.68;100638.36;107806;1259;68732;-68
2023/08/14 00:26:23;;;;;;;11.90;7.30;;;;;;;21.12;56.25;100641.84;107686;1260;71342;-69
2023/08/14 00:28:50;;;;;;;11.00;7.50;;;;;;;20.83;56.62;100640.49;107695;1259;61813;-68
2023/08/14 00:31:18;;;;;;;10.60;7.60;;;;;;;20.55;57.56;100640.92;107740;1257;59974;-68
2023/08/14 00:33:45;;;;;;;11.40;7.20;;;;;;;20.52;57.69;100640.42;107680;1262;75284;-67
2023/08/14 00:36:13;;;;;;;8.30;6.90;;;;;;;20.62;57.59;100639.83;107821;1257;69050;-69
2023/08/14 00:38:40;;;;;;;9.10;6.90;;;;;;;20.64;57.46;100637.91;107669;1259;72692;-65
2023/08/14 00:41:08;;;;;;;11.10;7.20;;;;;;;20.64;57.57;100639.92;107668;1257;60282;-68
2023/08/14 00:43:36;;;;;;;9.50;6.90;;;;;;;20.55;57.77;100640.91;107792;1257;60368;-67
2023/08/14 00:46:03;;;;;;;11.70;7.30;;;;;;;20.33;58.28;100644.57;107706;1257;73012;-67
2023/08/14 00:48:31;;;;;;;13.90;7.50;;;;;;;20.27;58.70;100645.52;107591;1257;70290;-68
2023/08/14 00:50:58;;;;;;;12.30;8.00;;;;;;;20.34;58.53;100645.59;107611;1257;72417;-68
2023/08/14 00:53:26;;;;;;;11.20;7.80;;;;;;;20.25;58.69;100645.42;107597;1264;59580;-69
2023/08/14 00:55:54;;;;;;;10.20;7.30;;;;;;;20.26;59.02;100643.59;107610;1257;60452;-68
2023/08/14 00:58:22;;;;;;;11.80;7.70;;;;;;;20.28;58.88;100642.20;107520;1259;73050;-69
2023/08/14 01:00:49;;;;;;;10.90;7.80;;;;;;;20.27;58.75;100643.52;107623;1257;70301;-68
2023/08/14 01:03:17;;;;;;;14.70;10.90;;;;;;;20.48;58.14;100640.29;107727;1257;72663;-67
2023/08/14 01:05:45;;;;;;;13.80;10.60;;;;;;;20.48;57.98;100641.36;107635;1259;60441;-67
2023/08/14 01:08:12;;;;;;;18.20;12.30;;;;;;;20.40;58.44;100642.88;107647;1262;62205;-67
2023/08/14 01:11:12;;;;;;;19.20;11.90;;;;;;;20.31;58.83;100638.98;107558;1258;72220;-67
2023/08/14 01:13:49;;;;;;;17.70;11.20;;;;;;;20.41;58.33;100641.74;107662;1258;69066;-68
2023/08/14 01:16:21;;;;;;;18.40;12.20;;;;;;;20.31;58.55;100644.66;107649;1259;71491;-68
2023/08/14 01:18:49;;;;;;;15.50;10.70;;;;;;;20.40;58.27;100642.11;107750;1259;61675;-68
2023/08/14 01:21:16;;;;;;;15.40;9.40;;;;;;;20.31;58.50;100640.44;107623;1262;59987;-68
2023/08/14 01:24:05;;;;;;;9.90;8.10;;;;;;;20.21;58.72;100644.13;107619;1259;71802;-68
2023/08/14 01:26:32;;;;;;;16.20;11.00;;;;;;;20.29;58.68;100644.63;107621;1259;69248;-69
2023/08/14 01:29:00;;;;;;;11.30;8.80;;;;;;;20.34;58.44;100645.57;107581;1258;71765;-69
2023/08/14 01:31:30;;;;;;;13.00;8.80;;;;;;;20.26;58.73;100646.65;107649;1259;60384;-68
2023/08/14 01:33:58;;;;;;;14.80;8.80;;;;;;;20.23;58.78;100646.34;107657;1259;59542;-67
2023/08/14 01:36:44;;;;;;;19.70;10.90;;;;;;;20.24;58.79;100649.79;107623;1259;73496;-66
2023/08/14 01:39:12;;;;;;;26.40;13.50;;;;;;;20.31;58.62;100643.23;107625;1258;69820;-68
2023/08/14 01:41:59;;;;;;;16.50;11.70;;;;;;;20.33;58.48;100642.75;107548;1260;72728;-68
2023/08/14 01:44:27;;;;;;;13.20;8.90;;;;;;;20.30;58.45;100645.83;107522;1259;62871;-68
2023/08/14 01:46:54;;;;;;;16.90;9.40;;;;;;;20.19;58.97;100649.96;107488;1259;59605;-68
2023/08/14 01:49:21;;;;;;;12.20;9.00;;;;;;;19.98;59.58;100656.76;107527;1259;73109;-68
2023/08/14 01:51:49;;;;;;;9.60;7.80;;;;;;;20.17;59.40;100656.36;107479;1259;69959;-68
2023/08/14 01:54:16;;;;;;;15.60;10.00;;;;;;;20.00;59.90;100656.84;107518;1259;72444;-67
2023/08/14 01:56:44;;;;;;;12.90;8.60;;;;;;;20.04;59.77;100652.61;107548;1259;63842;-67
2023/08/14 01:59:11;;;;;;;13.60;9.90;;;;;;;20.25;59.50;100651.37;107539;1258;60004;-68
2023/08/14 02:01:38;;;;;;;14.40;11.00;;;;;;;20.21;59.50;100652.54;107672;1259;71625;-67
2023/08/14 02:04:07;;;;;;;19.00;11.90;;;;;;;20.15;59.77;100654.34;107705;1258;69589;-66
2023/08/14 02:06:35;;;;;;;20.40;14.90;;;;;;;20.15;59.84;100659.33;107499;1259;72280;-68
2023/08/14 02:09:03;;;;;;;20.10;15.60;;;;;;;19.98;60.49;100661.05;107661;1259;60405;-68
2023/08/14 02:11:30;;;;;;;26.40;15.90;;;;;;;19.98;60.51;100662.88;107594;1258;60038;-67
2023/08/14 02:13:58;;;;;;;24.10;16.20;;;;;;;20.05;60.31;100668.80;107488;1259;72953;-68
2023/08/14 02:16:26;;;;;;;26.90;15.90;;;;;;;20.22;59.86;100663.67;107617;1258;70799;-68
2023/08/14 02:18:53;;;;;;;29.40;16.90;;;;;;;20.26;59.81;100666.42;107626;1259;71409;-68
2023/08/14 02:21:21;;;;;;;18.00;14.60;;;;;;;20.27;59.71;100670.13;107505;1262;61327;-68
2023/08/14 02:23:50;;;;;;;18.30;15.10;;;;;;;20.06;60.38;100674.77;107652;1259;59505;-67
2023/08/14 02:26:17;;;;;;;17.30;12.40;;;;;;;20.19;60.04;100672.05;107648;1258;73021;-68
2023/08/14 02:28:45;;;;;;;15.20;10.80;;;;;;;20.25;59.77;100675.45;107667;1258;70158;-69
2023/08/14 02:31:12;;;;;;;18.70;12.00;;;;;;;20.19;59.82;100671.77;107633;1258;72698;-68
2023/08/14 02:33:40;;;;;;;13.60;10.90;;;;;;;20.11;60.04;100679.25;107708;1259;60487;-68
2023/08/14 02:36:07;;;;;;;15.50;10.70;;;;;;;20.07;60.21;100678.27;107650;1260;60022;-67
2023/08/14 02:38:35;;;;;;;16.10;11.50;;;;;;;20.05;60.21;100682.50;107691;1257;72400;-68
2023/08/14 02:41:06;;;;;;;12.30;10.00;;;;;;;19.96;60.35;100682.36;108114;1258;68692;-67
2023/08/14 02:43:34;;;;;;;18.90;11.40;;;;;;;19.88;60.88;100682.02;108208;1260;71400;-68
2023/08/14 02:46:01;;;;;;;19.50;13.00;;;;;;;19.91;60.92;100684.34;108259;1259;60674;-67
2023/08/14 02:48:29;;;;;;;26.40;15.20;;;;;;;19.90;61.12;100683.68;108135;1258;59503;-68
2023/08/14 02:50:56;;;;;;;20.20;15.50;;;;;;;19.93;61.26;100685.11;107829;1259;71785;-68
2023/08/14 02:53:23;;;;;;;22.20;17.80;;;;;;;19.98;61.12;100683.17;107714;1256;70486;-68
2023/08/14 02:55:51;;;;;;;14.60;11.50;;;;;;;19.97;61.36;100684.48;107950;1253;72687;-67
2023/08/14 02:58:19;;;;;;;23.10;17.00;;;;;;;19.92;61.86;100689.79;108079;1254;60188;-67
2023/08/14 03:00:46;;;;;;;25.70;17.80;;;;;;;19.92;61.91;100692.30;108095;1253;59382;-67
2023/08/14 03:03:14;;;;;;;28.30;19.30;;;;;;;19.82;62.31;100695.25;108117;1253;73054;-69
2023/08/14 03:05:44;;;;;;;28.90;20.00;;;;;;;19.86;62.27;100694.27;108083;1253;70408;-67
2023/08/14 03:08:11;;;;;;;20.00;15.60;;;;;;;20.01;61.88;100692.92;107996;1253;72420;-67
2023/08/14 03:10:39;;;;;;;25.20;19.70;;;;;;;19.92;62.27;100698.50;107977;1253;60859;-69
2023/08/14 03:13:06;;;;;;;21.10;15.40;;;;;;;19.93;62.38;100692.95;108019;1253;59951;-68
2023/08/14 03:15:34;;;;;;;27.40;20.50;;;;;;;19.95;62.49;100696.89;108033;1253;73014;-67
2023/08/14 03:18:01;;;;;;;26.00;19.80;;;;;;;20.00;62.53;100694.25;107991;1253;69207;-69
2023/08/14 03:20:28;;;;;;;24.40;16.50;;;;;;;20.13;62.57;100693.21;107667;1253;72003;-68
2023/08/14 04:04:56;;;;;;;17.70;10.00;;;;;;;26.99;45.72;100697.95;104912;1289;600951;-69
2023/08/14 04:07:23;;;;;;;19.10;9.70;;;;;;;27.25;45.08;100700.51;107275;1270;61750;-69
2023/08/14 04:09:51;;;;;;;13.10;9.60;;;;;;;27.56;44.36;100703.45;107366;1266;59218;-70
2023/08/14 04:12:19;;;;;;;16.50;8.70;;;;;;;27.88;43.56;100701.48;107306;1265;70953;-69
2023/08/14 04:14:49;;;;;;;15.90;9.20;;;;;;;28.30;42.68;100699.95;107213;1264;68897;-70
2023/08/14 04:17:16;;;;;;;10.50;8.00;;;;;;;28.77;41.39;100700.17;107321;1264;70533;-69
2023/08/14 04:19:43;;;;;;;11.00;7.50;;;;;;;29.05;40.19;100698.98;107194;1266;241418;-69
2023/08/14 04:22:10;;;;;;;11.30;7.20;;;;;;;29.31;39.92;100703.98;107403;1263;60019;-69
2023/08/14 04:24:38;;;;;;;10.80;6.80;;;;;;;29.43;39.40;100698.67;107455;1263;74135;-69
2023/08/14 04:27:05;;;;;;;14.40;7.50;;;;;;;29.69;38.85;100701.92;107357;1263;70108;-69
2023/08/14 04:29:33;;;;;;;11.70;7.20;;;;;;;30.08;37.95;100705.83;107262;1263;72479;-69
2023/08/14 04:32:00;;;;;;;13.20;6.30;;;;;;;30.48;37.49;100705.11;107332;1263;59734;-69
2023/08/14 04:34:28;;;;;;;14.30;7.50;;;;;;;30.81;37.03;100700.20;107361;1263;60403;-69
2023/08/14 04:36:55;;;;;;;9.90;6.50;;;;;;;30.96;36.45;100699.94;107393;1263;72809;-68
2023/08/14 04:39:22;;;;;;;13.80;7.00;;;;;;;31.14;35.64;100703.11;107422;1262;70037;-70
2023/08/14 04:41:51;;;;;;;10.50;7.20;;;;;;;31.38;35.39;100707.36;107314;1263;72828;-68
2023/08/14 04:44:18;;;;;;;10.90;6.50;;;;;;;31.52;35.18;100706.42;107390;1263;60217;-69
2023/08/14 04:46:47;;;;;;;11.90;6.70;;;;;;;31.92;34.65;100709.63;107973;1255;59525;-69
2023/08/14 04:49:28;;;;;;;16.70;6.50;;;;;;;32.21;34.10;100710.42;107896;1260;73115;-69
2023/08/14 04:51:56;;;;;;;8.80;5.70;;;;;;;32.37;33.79;100707.40;107916;1255;68441;-69
2023/08/14 04:54:25;;;;;;;14.80;6.30;;;;;;;32.76;33.09;100712.34;108164;1252;72888;-69
2023/08/14 04:56:52;;;;;;;16.50;6.30;;;;;;;32.83;32.23;100713.08;108307;1251;60002;-70
2023/08/14 04:59:20;;;;;;;10.00;6.00;;;;;;;32.85;32.30;100715.41;108129;1253;60068;-70
2023/08/14 05:01:47;;;;;;;13.20;7.20;;;;;;;32.84;32.41;100715.08;108022;1253;72279;-71
2023/08/14 05:04:17;;;;;;;13.30;6.40;;;;;;;32.95;32.52;100714.29;108159;1252;69486;-70
2023/08/14 05:06:45;;;;;;;9.00;5.80;;;;;;;33.08;31.91;100715.40;108057;1252;72756;-69
2023/08/14 05:09:13;;;;;;;11.90;5.60;;;;;;;33.45;31.59;100719.64;108220;1253;59857;-69
2023/08/14 05:11:54;;;;;;;18.20;6.30;;;;;;;33.78;31.21;100720.40;108076;1259;59106;-70
2023/08/14 05:14:21;;;;;;;13.90;6.20;;;;;;;33.97;30.97;100720.09;108133;1252;62874;-69
2023/08/14 05:16:50;;;;;;;12.80;6.30;;;;;;;34.08;30.86;100723.94;108273;1253;68703;-71
2023/08/14 05:19:18;;;;;;;14.20;5.50;;;;;;;34.44;30.61;100725.21;108113;1253;63722;-70
2023/08/14 05:21:47;;;;;;;14.00;6.60;;;;;;;34.87;29.81;100723.95;108109;1253;59638;-70
2023/08/14 05:24:14;;;;;;;15.00;6.20;;;;;;;35.24;29.41;100726.35;108101;1252;59833;-69
2023/08/14 05:26:42;;;;;;;11.60;5.40;;;;;;;35.41;29.07;100728.07;108058;1253;64284;-70
2023/08/14 05:29:09;;;;;;;15.10;5.20;;;;;;;35.60;28.89;100728.23;108041;1253;63310;-70
2023/08/14 05:31:37;;;;;;;12.30;4.90;;;;;;;35.98;28.32;100725.48;108016;1255;63752;-69
2023/08/14 05:34:04;;;;;;;12.80;4.30;;;;;;;36.37;27.59;100728.80;108055;1253;59609;-71
2023/08/14 05:36:32;;;;;;;16.10;4.40;;;;;;;36.69;26.80;100730.30;108059;1253;59523;-69
2023/08/14 05:38:59;;;;;;;12.40;4.60;;;;;;;37.12;26.67;100730.50;108166;1253;62830;-69
2023/08/14 05:41:27;;;;;;;8.90;4.20;;;;;;;37.39;26.02;100726.85;108094;1253;60564;-69
2023/08/14 05:43:54;;;;;;;10.90;4.10;;;;;;;37.86;25.44;100725.61;108079;1253;63767;-70
2023/08/14 05:46:24;;;;;;;9.00;3.80;;;;;;;38.17;24.96;100725.03;108155;1254;59405;-69
2023/08/14 05:48:51;;;;;;;7.20;3.40;;;;;;;38.51;24.79;100727.86;108091;1253;59544;-70
2023/08/14 05:51:19;;;;;;;11.30;4.00;;;;;;;38.88;24.48;100723.20;108104;1253;64084;-70
2023/08/14 05:53:46;;;;;;;9.20;3.50;;;;;;;39.26;24.30;100722.98;108082;1253;60223;-70
2023/08/14 05:56:14;;;;;;;4.30;2.70;;;;;;;39.54;23.50;100723.98;108011;1253;63654;-70
2023/08/14 05:58:41;;;;;;;6.00;3.00;;;;;;;39.84;22.77;100724.13;108085;1253;59459;-69
2023/08/14 06:01:08;;;;;;;8.90;2.90;;;;;;;40.21;22.07;100722.65;108089;1253;59211;-70
2023/08/14 06:03:38;;;;;;;10.70;2.90;;;;;;;40.35;21.36;100725.05;108067;1253;63351;-70
2023/08/14 06:06:12;;;;;;;4.10;2.90;;;;;;;40.29;21.62;100729.36;108106;1253;60309;-70
2023/08/14 06:08:39;;;;;;;7.20;2.70;;;;;;;40.44;21.28;100729.36;107943;1256;62494;-72
2023/08/14 06:11:07;;;;;;;5.70;2.80;;;;;;;40.72;20.69;100735.85;107979;1256;59503;-71
2023/08/14 06:13:34;;;;;;;8.70;2.60;;;;;;;40.78;20.68;100737.16;107985;1253;59577;-70
2023/08/14 06:16:02;;;;;;;8.10;2.60;;;;;;;41.06;20.25;100738.98;108131;1253;63885;-71
2023/08/14 06:18:30;;;;;;;4.60;2.80;;;;;;;41.34;19.85;100738.58;108121;1253;60315;-69
2023/08/14 06:20:57;;;;;;;5.40;2.60;;;;;;;41.38;20.03;100741.43;108091;1253;63125;-71
2023/08/14 06:23:24;;;;;;;6.00;2.60;;;;;;;41.46;19.89;100745.95;108049;1254;59635;-71
2023/08/14 06:25:52;;;;;;;7.40;2.60;;;;;;;41.36;20.13;100744.38;108096;1256;59115;-70
2023/08/14 06:28:19;;;;;;;7.30;2.50;;;;;;;41.42;19.84;100748.31;108038;1258;63169;-70
2023/08/14 06:30:47;;;;;;;4.30;2.60;;;;;;;41.26;19.91;100748.91;108132;1252;72249;-71
2023/08/14 06:33:14;;;;;;;8.60;2.70;;;;;;;41.29;19.76;100747.49;108089;1253;63760;-68
2023/08/14 06:35:43;;;;;;;4.90;2.70;;;;;;;41.38;19.99;100749.21;108064;1253;59619;-70
2023/08/14 06:38:10;;;;;;;6.80;2.70;;;;;;;41.67;20.04;100747.18;108107;1253;59483;-70
2023/08/14 06:40:39;;;;;;;5.50;2.80;;;;;;;41.78;19.65;100746.34;108053;1253;64136;-69
2023/08/14 06:43:07;;;;;;;7.30;2.90;;;;;;;41.87;19.92;100745.51;108066;1252;61379;-70
2023/08/14 06:45:34;;;;;;;3.60;2.40;;;;;;;41.86;19.76;100746.27;108208;1253;62540;-70
2023/08/14 06:48:01;;;;;;;8.20;2.80;;;;;;;41.95;19.37;100746.15;108043;1252;59206;-71
2023/08/14 06:50:29;;;;;;;7.40;2.80;;;;;;;41.91;19.87;100750.64;108090;1252;60027;-69
2023/08/14 06:52:56;;;;;;;6.10;2.80;;;;;;;42.32;19.61;100750.60;108166;1252;64141;-71
2023/08/14 06:55:24;;;;;;;13.10;2.80;;;;;;;42.42;19.45;100751.72;108094;1253;60213;-70
2023/08/14 06:57:51;;;;;;;7.30;2.40;;;;;;;42.45;19.16;100755.98;108080;1253;63741;-70
2023/08/14 07:00:19;;;;;;;4.50;2.50;;;;;;;42.72;18.72;100756.77;108096;1253;59713;-70
2023/08/14 07:02:47;;;;;;;4.10;2.50;;;;;;;42.60;18.61;100759.31;108233;1252;59710;-71
2023/08/14 07:05:17;;;;;;;8.00;2.30;;;;;;;42.50;19.00;100761.48;108123;1256;63406;-70
2023/08/14 07:07:46;;;;;;;7.80;2.40;;;;;;;42.50;18.23;100766.02;108082;1252;72165;-70
2023/08/14 07:10:13;;;;;;;7.10;2.40;;;;;;;42.58;18.27;100763.70;108087;1253;62795;-70
2023/08/14 07:12:41;;;;;;;12.40;2.60;;;;;;;42.37;18.62;100760.70;108198;1257;59584;-71
2023/08/14 07:15:10;;;;;;;8.80;2.40;;;;;;;42.40;18.12;100764.04;108166;1257;59115;-71
2023/08/14 07:17:38;;;;;;;4.60;2.40;;;;;;;42.22;18.65;100764.77;108164;1253;64130;-70
2023/08/14 07:20:06;;;;;;;4.40;1.90;;;;;;;42.08;18.68;100763.05;108162;1251;60132;-71
2023/08/14 07:22:38;;;;;;;5.40;2.30;;;;;;;42.10;18.76;100762.73;108357;1251;64145;-70
2023/08/14 07:25:06;;;;;;;4.60;2.30;;;;;;;42.22;18.65;100761.58;108249;1251;59641;-71
2023/08/14 07:27:33;;;;;;;6.80;2.20;;;;;;;42.49;18.79;100764.12;108205;1252;59523;-71
2023/08/14 07:30:01;;;;;;;5.40;1.90;;;;;;;42.59;18.35;100765.44;108218;1251;64187;-68
2023/08/14 07:32:28;;;;;;;2.90;1.90;;;;;;;42.49;18.07;100766.31;108240;1251;61415;-69
2023/08/14 07:34:56;;;;;;;4.00;2.10;;;;;;;42.07;18.64;100766.34;108219;1251;63743;-70
2023/08/14 07:37:23;;;;;;;4.70;2.20;;;;;;;42.12;18.45;100766.60;108287;1251;59737;-71
2023/08/14 07:39:51;;;;;;;7.30;2.30;;;;;;;42.27;18.23;100764.69;108200;1251;59879;-69
2023/08/14 07:42:18;;;;;;;8.20;2.40;;;;;;;42.34;18.67;100760.98;108284;1251;73793;-70
2023/08/14 07:44:46;;;;;;;5.30;1.90;;;;;;;42.28;18.34;100760.51;108162;1251;61297;-70
2023/08/14 07:47:14;;;;;;;4.50;1.80;;;;;;;42.60;18.06;100757.81;108129;1251;63868;-70
2023/08/14 07:49:41;;;;;;;6.70;1.90;;;;;;;42.86;17.90;100761.13;108281;1251;59532;-70
2023/08/14 07:52:10;;;;;;;4.60;2.00;;;;;;;42.98;17.38;100762.19;108162;1251;59023;-71
2023/08/14 07:54:37;;;;;;;6.50;2.20;;;;;;;43.05;17.26;100757.28;108211;1251;64110;-70
2023/08/14 07:57:05;;;;;;;6.00;2.00;;;;;;;42.67;17.92;100757.84;108075;1251;61689;-71
2023/08/14 07:59:32;;;;;;;5.60;1.60;;;;;;;42.39;17.88;100758.20;108221;1251;73718;-71
2023/08/14 08:02:00;;;;;;;6.90;2.00;;;;;;;42.59;17.64;100759.06;108201;1251;59743;-71
2023/08/14 08:04:29;;;;;;;4.80;2.10;;;;;;;42.60;17.75;100755.37;108234;1254;59772;-71
2023/08/14 08:07:05;;;;;;;5.20;2.10;;;;;;;42.72;17.75;100755.38;108189;1251;64098;-71
2023/08/14 08:09:32;;;;;;;7.60;2.30;;;;;;;42.69;18.25;100752.61;108297;1251;60328;-71
2023/08/14 08:12:00;;;;;;;8.00;2.40;;;;;;;42.25;18.83;100755.32;108318;1251;63744;-70
2023/08/14 08:14:27;;;;;;;11.10;2.50;;;;;;;42.72;18.32;100752.77;108208;1251;60303;-71
2023/08/14 08:16:55;;;;;;;6.90;2.40;;;;;;;43.19;18.22;100751.93;108306;1253;59218;-70
2023/08/14 08:19:22;;;;;;;5.70;2.30;;;;;;;42.93;18.04;100751.41;108345;1251;63640;-71
2023/08/14 08:21:49;;;;;;;12.40;3.00;;;;;;;42.99;17.87;100750.61;108307;1251;61290;-72
2023/08/14 08:24:17;;;;;;;8.50;2.60;;;;;;;43.01;17.57;100753.69;108068;1255;62442;-70
2023/08/14 08:26:45;;;;;;;6.40;2.00;;;;;;;43.12;17.83;100753.83;108214;1251;60335;-71
2023/08/14 08:29:12;;;;;;;5.70;2.40;;;;;;;42.91;18.07;100754.61;108243;1253;60391;-70
2023/08/14 08:31:39;;;;;;;7.90;2.50;;;;;;;42.57;18.12;100757.38;108175;1251;63690;-72
2023/08/14 08:34:07;;;;;;;4.80;2.30;;;;;;;42.36;18.23;100759.41;108217;1251;61354;-71
2023/08/14 08:36:35;;;;;;;9.00;2.80;;;;;;;42.10;18.18;100757.04;108231;1251;63171;-72
2023/08/14 08:39:02;;;;;;;6.40;3.00;;;;;;;42.15;18.32;100757.91;108256;1251;60317;-68
2023/08/14 08:41:31;;;;;;;4.70;2.50;;;;;;;42.50;18.34;100761.30;108372;1256;59656;-71
2023/08/14 08:44:20;;;;;;;7.60;2.40;;;;;;;42.79;17.95;100759.81;108247;1253;63784;-71
2023/08/14 08:46:50;;;;;;;7.80;3.00;;;;;;;42.92;17.47;100761.93;108228;1251;62808;-70
2023/08/14 08:49:18;;;;;;;;;;;;;;;42.74;17.62;100758.89;108215;1251;62427;-71
2023/08/14 08:51:45;;;;;;;5.90;2.50;;;;;;;42.32;18.18;100759.52;108093;1257;60423;-70
2023/08/14 08:54:15;;;;;;;11.50;2.60;;;;;;;42.26;18.56;100762.14;108201;1253;60307;-70
2023/08/14 08:56:42;;;;;;;6.80;2.40;;;;;;;42.27;18.30;100760.98;108149;1251;73815;-69
2023/08/14 08:59:11;;;;;;;6.10;2.30;;;;;;;42.26;18.18;100760.98;108042;1251;60213;-71
2023/08/14 09:01:43;;;;;;;4.80;2.50;;;;;;;42.12;18.27;100763.23;107922;1260;63758;-71
2023/08/14 09:04:11;;;;;;;8.10;2.50;;;;;;;42.16;18.22;100760.88;108263;1251;60172;-70
2023/08/14 09:06:38;;;;;;;5.40;2.60;;;;;;;42.19;18.34;100762.89;108299;1251;60426;-71
2023/08/14 09:09:07;;;;;;;8.50;2.70;;;;;;;42.05;18.12;100759.17;108051;1251;64384;-69
2023/08/14 09:11:34;;;;;;;7.40;2.70;;;;;;;41.86;18.43;100758.27;108327;1251;61705;-70
2023/08/14 09:14:02;;;;;;;6.90;2.90;;;;;;;41.88;18.53;100757.54;108255;1256;63877;-70
2023/08/14 09:16:29;;;;;;;7.30;2.70;;;;;;;41.92;18.32;100755.39;108131;1253;60406;-70
2023/08/14 09:18:59;;;;;;;7.90;2.30;;;;;;;42.12;18.16;100761.10;108292;1251;60361;-71
2023/08/14 09:21:27;;;;;;;6.10;2.50;;;;;;;42.21;18.14;100758.45;108203;1251;64997;-71
2023/08/14 09:23:55;;;;;;;5.80;2.20;;;;;;;42.22;17.91;100753.59;108202;1253;61612;-71
2023/08/14 09:26:22;;;;;;;6.20;2.40;;;;;;;42.39;17.74;100756.27;108224;1252;62415;-70
2023/08/14 09:28:50;;;;;;;7.40;2.70;;;;;;;42.81;17.69;100749.20;108250;1251;60412;-70
2023/08/14 09:31:17;;;;;;;7.80;2.20;;;;;;;43.23;17.74;100748.83;108207;1252;60319;-70
2023/08/14 09:33:45;;;;;;;8.60;2.60;;;;;;;43.53;17.32;100745.18;108307;1251;64861;-71
2023/08/14 09:36:16;;;;;;;4.90;2.30;;;;;;;43.67;16.69;100743.79;108232;1251;61494;-71
2023/08/14 09:38:44;;;;;;;5.10;2.40;;;;;;;43.63;16.92;100742.52;108187;1253;64820;-71
2023/08/14 09:41:12;;;;;;;7.60;2.00;;;;;;;44.00;16.57;100740.39;108187;1253;60460;-71
2023/08/14 09:43:39;;;;;;;5.30;1.90;;;;;;;44.30;16.00;100740.97;108160;1251;60126;-71
2023/08/14 09:46:06;;;;;;;4.00;2.00;;;;;;;44.13;16.07;100740.05;108180;1253;65418;-70
2023/08/14 09:48:45;;;;;;;6.50;2.10;;;;;;;44.10;16.14;100743.36;107987;1251;60563;-70
2023/08/14 09:51:16;;;;;;;8.00;2.50;;;;;;;44.18;16.38;100742.61;108179;1251;63804;-70
2023/08/14 09:53:45;;;;;;;5.70;2.10;;;;;;;43.96;16.52;100740.90;108275;1252;61039;-71
2023/08/14 09:56:13;;;;;;;5.60;2.80;;;;;;;43.55;16.73;100740.54;108266;1251;60253;-71
2023/08/14 09:58:40;;;;;;;4.60;2.30;;;;;;;43.43;16.74;100738.70;108147;1252;64974;-71
2023/08/14 10:01:08;;;;;;;3.90;2.30;;;;;;;43.20;16.58;100741.68;108153;1251;60328;-71
2023/08/14 10:03:35;;;;;;;11.00;2.50;;;;;;;42.68;17.05;100746.23;108096;1251;63908;-70
2023/08/14 10:06:03;;;;;;;7.40;2.50;;;;;;;42.26;17.39;100742.88;108173;1251;60370;-71
2023/08/14 10:08:33;;;;;;;6.30;2.70;;;;;;;42.34;17.34;100734.46;108229;1251;60243;-71
2023/08/14 10:11:03;;;;;;;7.70;2.70;;;;;;;42.53;17.26;100733.50;108177;1253;64976;-72
2023/08/14 10:13:46;;;;;;;8.00;2.70;;;;;;;42.59;17.30;100732.70;108040;1256;60348;-70
2023/08/14 10:16:22;;;;;;;7.50;2.80;;;;;;;42.86;17.09;100734.42;108276;1253;63902;-71
2023/08/14 10:18:53;;;;;;;3.80;2.30;;;;;;;42.95;16.72;100736.10;108312;1256;59715;-72
2023/08/14 10:21:20;;;;;;;4.70;2.60;;;;;;;42.68;16.96;100736.71;108176;1256;60330;-71
2023/08/14 10:23:48;;;;;;;8.80;2.80;;;;;;;42.59;16.90;100735.70;108196;1257;64152;-70
2023/08/14 10:26:15;;;;;;;5.70;2.40;;;;;;;42.52;17.17;100733.54;108248;1253;60502;-71
2023/08/14 10:28:43;;;;;;;4.80;2.40;;;;;;;42.25;17.71;100734.66;107914;1253;62738;-72
2023/08/14 10:31:10;;;;;;;6.10;2.60;;;;;;;42.12;17.67;100736.78;108208;1253;60310;-70
2023/08/14 10:33:38;;;;;;;6.90;2.30;;;;;;;41.84;17.98;100736.77;107990;1253;60933;-72
2023/08/14 10:36:06;;;;;;;5.20;2.50;;;;;;;41.39;18.05;100737.74;108062;1253;63635;-71
2023/08/14 10:38:49;;;;;;;7.20;2.50;;;;;;;41.62;18.23;100733.55;108167;1257;61878;-70
2023/08/14 10:41:32;;;;;;;6.20;2.30;;;;;;;41.54;18.08;100734.11;108143;1253;62534;-70
2023/08/14 10:43:59;;;;;;;;;;;;;;;41.91;17.89;100731.97;108138;1253;59638;-69
2023/08/14 10:46:26;;;;;;;6.10;2.40;;;;;;;42.33;17.85;100728.87;107999;1253;60334;-70
2023/08/14 10:48:54;;;;;;;6.20;2.50;;;;;;;42.47;17.47;100730.71;107883;1253;65037;-70
2023/08/14 10:51:21;;;;;;;4.10;2.50;;;;;;;42.70;17.08;100731.55;108254;1256;60222;-72
2023/08/14 10:54:01;;;;;;;7.00;2.40;;;;;;;42.49;17.28;100728.45;108110;1253;62572;-72
2023/08/14 10:56:49;;;;;;;3.50;2.20;;;;;;;41.97;17.87;100726.41;108029;1253;60279;-70
2023/08/14 10:59:20;;;;;;;5.20;2.40;;;;;;;42.07;17.59;100727.22;108133;1253;60474;-71
2023/08/14 11:01:51;;;;;;;6.40;2.70;;;;;;;42.37;17.59;100725.13;108087;1253;65008;-71
2023/08/14 11:04:19;;;;;;;6.00;2.70;;;;;;;42.78;17.12;100724.78;108151;1252;72218;-70
2023/08/14 11:07:08;;;;;;;6.70;2.40;;;;;;;42.76;17.14;100720.36;108117;1253;62784;-69
2023/08/14 11:09:37;;;;;;;5.20;2.50;;;;;;;42.90;17.06;100720.02;108191;1253;60301;-70
2023/08/14 11:12:06;;;;;;;10.00;3.10;;;;;;;43.32;16.90;100720.60;108166;1253;60334;-71
2023/08/14 11:14:38;;;;;;;8.00;2.50;;;;;;;43.36;16.89;100720.02;108208;1253;64956;-71
2023/08/14 11:17:07;;;;;;;10.40;2.30;;;;;;;42.86;17.06;100720.35;108207;1253;60434;-69
2023/08/14 11:19:36;;;;;;;9.50;2.70;;;;;;;42.35;17.89;100716.06;108189;1253;63730;-70
2023/08/14 11:22:03;;;;;;;9.80;2.90;;;;;;;42.22;17.87;100714.02;108193;1253;60348;-69
2023/08/14 11:24:34;;;;;;;10.40;2.60;;;;;;;42.08;17.43;100712.91;108139;1253;59406;-67
2023/08/14 11:27:01;;;;;;;12.00;2.60;;;;;;;42.23;17.88;100709.84;108017;1254;64945;-69
2023/08/14 11:29:29;;;;;;;5.70;2.20;;;;;;;42.23;17.95;100707.18;108192;1253;70623;-69
2023/08/14 11:32:00;;;;;;;7.20;2.60;;;;;;;42.30;17.94;100703.41;108155;1253;63856;-70
2023/08/14 11:34:28;;;;;;;8.50;2.80;;;;;;;42.44;17.73;100698.48;107967;1253;59149;-70
2023/08/14 11:37:00;;;;;;;8.20;2.50;;;;;;;42.49;17.52;100694.65;108135;1253;60427;-70
2023/08/14 11:39:31;;;;;;;6.60;2.40;;;;;;;42.27;17.53;100691.14;108183;1253;65034;-69
2023/08/14 11:41:58;;;;;;;7.20;2.40;;;;;;;42.34;17.52;100691.41;108265;1253;68686;-70
2023/08/14 11:44:26;;;;;;;9.90;2.50;;;;;;;42.53;17.11;100687.38;108207;1253;62442;-70
2023/08/14 11:46:53;;;;;;;5.00;2.30;;;;;;;42.57;17.26;100687.88;108000;1253;60352;-70
2023/08/14 11:49:21;;;;;;;7.50;2.50;;;;;;;42.07;17.93;100683.50;108176;1253;60334;-70
2023/08/14 11:55:01;;;;;;;5.10;2.40;;;;;;;40.12;19.44;100690.00;104726;1291;600783;-70
2023/08/14 11:57:30;;;;;;;8.20;2.40;;;;;;;41.30;18.49;100685.30;107201;1266;59252;-70
2023/08/14 11:59:57;;;;;;;5.50;2.60;;;;;;;41.48;18.26;100679.55;107314;1269;59183;-70
2023/08/14 12:02:25;;;;;;;6.40;2.40;;;;;;;41.45;18.42;100681.47;107353;1267;62465;-70
2023/08/14 12:04:52;;;;;;;8.10;2.60;;;;;;;41.55;18.04;100678.63;107337;1267;61578;-70